createdAt,value
2022-10-08T00:00:23.311Z,17.10
2022-10-08T00:02:52.067Z,17.10
2022-10-08T00:05:22.320Z,17.10
2022-10-08T00:08:10.515Z,17.10
2022-10-08T00:10:39.455Z,17.10
2022-10-08T00:13:08.383Z,17.10
2022-10-08T00:15:44.099Z,17.10
2022-10-08T00:18:13.246Z,17.10
2022-10-08T00:20:43.849Z,17.10
2022-10-08T00:23:13.215Z,17.10
2022-10-08T00:25:42.537Z,17.10
2022-10-08T00:28:12.169Z,17.10
2022-10-08T00:30:42.790Z,17.10
2022-10-08T00:33:12.441Z,17.10
2022-10-08T00:35:43.378Z,17.10
2022-10-08T00:38:12.297Z,17.10
2022-10-08T00:40:44.352Z,17.10
2022-10-08T00:43:17.029Z,17.10
2022-10-08T00:45:48.476Z,17.10
2022-10-08T00:48:25.757Z,17.10
2022-10-08T00:50:56.145Z,17.10
2022-10-08T00:53:25.103Z,17.10
2022-10-08T00:55:53.897Z,17.10
2022-10-08T00:58:26.824Z,17.10
2022-10-08T01:00:55.942Z,17.10
2022-10-08T01:03:24.807Z,17.10
2022-10-08T01:06:01.397Z,17.10
2022-10-08T01:08:36.291Z,17.10
2022-10-08T01:11:13.432Z,17.10
2022-10-08T01:13:50.533Z,17.00
2022-10-08T01:16:31.367Z,17.00
2022-10-08T01:19:09.745Z,17.00
2022-10-08T01:21:47.844Z,17.00
2022-10-08T01:24:48.852Z,17.10
2022-10-08T01:27:26.401Z,17.00
2022-10-08T01:29:57.002Z,17.00
2022-10-08T01:32:38.955Z,17.00
2022-10-08T01:35:12.604Z,17.00
2022-10-08T01:37:43.888Z,17.00
2022-10-08T01:40:19.376Z,17.00
2022-10-08T01:42:52.830Z,17.00
2022-10-08T01:45:26.949Z,17.00
2022-10-08T01:47:58.636Z,17.00
2022-10-08T01:50:33.248Z,17.00
2022-10-08T01:53:05.914Z,17.00
2022-10-08T01:55:39.313Z,17.00
2022-10-08T01:58:13.848Z,17.00
2022-10-08T02:00:43.427Z,17.00
2022-10-08T02:03:12.583Z,17.00
2022-10-08T02:05:46.261Z,17.00
2022-10-08T02:08:15.077Z,17.00
2022-10-08T02:10:44.984Z,17.00
2022-10-08T02:13:15.600Z,17.00
2022-10-08T02:15:51.632Z,17.00
2022-10-08T02:18:28.775Z,17.00
2022-10-08T02:21:00.969Z,17.00
2022-10-08T02:23:36.271Z,17.00
2022-10-08T02:26:08.473Z,17.00
2022-10-08T02:28:46.022Z,17.00
2022-10-08T02:31:20.511Z,17.00
2022-10-08T02:33:55.825Z,17.00
2022-10-08T02:36:28.486Z,17.00
2022-10-08T02:39:00.651Z,17.00
2022-10-08T02:41:34.950Z,17.00
2022-10-08T02:44:10.300Z,16.90
2022-10-08T02:46:41.944Z,16.90
2022-10-08T02:49:16.263Z,16.90
2022-10-08T02:51:50.904Z,16.90
2022-10-08T02:54:22.528Z,16.90
2022-10-08T02:56:56.778Z,16.90
2022-10-08T02:59:27.465Z,16.90
2022-10-08T03:02:00.628Z,16.90
2022-10-08T03:04:53.019Z,16.90
2022-10-08T03:07:24.512Z,16.90
2022-10-08T03:09:54.916Z,16.90
2022-10-08T03:12:23.785Z,16.90
2022-10-08T03:14:54.187Z,16.90
2022-10-08T03:17:26.562Z,17.00
2022-10-08T03:19:56.328Z,17.00
2022-10-08T03:22:44.845Z,17.00
2022-10-08T03:25:13.794Z,17.00
2022-10-08T03:27:42.423Z,17.00
2022-10-08T03:30:14.303Z,17.00
2022-10-08T03:32:43.207Z,17.00
2022-10-08T03:35:11.911Z,17.00
2022-10-08T03:37:41.291Z,17.00
2022-10-08T03:40:11.677Z,17.00
2022-10-08T03:42:40.612Z,17.00
2022-10-08T03:45:09.748Z,17.00
2022-10-08T03:47:39.900Z,17.00
2022-10-08T03:50:09.367Z,17.00
2022-10-08T03:52:38.156Z,17.00
2022-10-08T03:55:07.800Z,17.00
2022-10-08T03:57:37.014Z,17.00
2022-10-08T04:00:06.379Z,17.00
2022-10-08T04:02:35.197Z,17.00
2022-10-08T04:05:05.622Z,16.90
2022-10-08T04:07:34.511Z,17.00
2022-10-08T04:10:03.150Z,17.00
2022-10-08T04:12:31.819Z,17.00
2022-10-08T04:15:00.659Z,17.00
2022-10-08T04:17:29.360Z,17.00
2022-10-08T04:19:58.084Z,17.00
2022-10-08T04:22:28.262Z,16.90
2022-10-08T04:24:57.120Z,16.90
2022-10-08T04:27:25.831Z,16.90
2022-10-08T04:29:54.525Z,16.90
2022-10-08T04:32:23.383Z,16.90
2022-10-08T04:34:52.092Z,16.90
2022-10-08T04:37:22.721Z,17.00
2022-10-08T04:39:53.013Z,17.00
2022-10-08T04:42:21.705Z,17.00
2022-10-08T04:44:50.439Z,17.00
2022-10-08T04:47:19.268Z,17.00
2022-10-08T04:49:48.113Z,17.00
2022-10-08T04:52:19.039Z,17.00
2022-10-08T04:54:48.245Z,17.10
2022-10-08T04:57:18.271Z,17.10
2022-10-08T05:00:13.145Z,17.10
2022-10-08T05:02:35.792Z,17.10
2022-10-08T05:05:04.837Z,17.10
2022-10-08T05:07:33.576Z,17.10
2022-10-08T05:10:02.497Z,17.10
2022-10-08T05:12:32.643Z,17.10
2022-10-08T05:15:01.471Z,17.10
2022-10-08T05:17:30.174Z,17.20
2022-10-08T05:19:58.817Z,17.10
2022-10-08T05:22:27.566Z,17.10
2022-10-08T05:24:56.271Z,17.10
2022-10-08T05:27:25.075Z,17.20
2022-10-08T05:29:55.337Z,17.20
2022-10-08T05:32:24.188Z,17.20
2022-10-08T05:34:52.988Z,17.20
2022-10-08T05:37:21.708Z,17.20
2022-10-08T05:39:50.727Z,17.10
2022-10-08T05:42:19.529Z,17.10
2022-10-08T05:44:48.293Z,17.10
2022-10-08T05:47:18.441Z,17.20
2022-10-08T05:49:47.351Z,17.10
2022-10-08T05:52:16.063Z,17.10
2022-10-08T05:54:44.889Z,17.20
2022-10-08T05:57:13.662Z,17.20
2022-10-08T05:59:42.521Z,17.20
2022-10-08T06:02:12.451Z,17.20
2022-10-08T06:04:42.833Z,17.20
2022-10-08T06:07:11.605Z,17.20
2022-10-08T06:09:40.278Z,17.30
2022-10-08T06:12:10.304Z,17.30
2022-10-08T06:14:39.182Z,17.30
2022-10-08T06:17:08.031Z,17.30
2022-10-08T06:19:37.500Z,17.30
2022-10-08T06:22:07.601Z,17.20
2022-10-08T06:24:36.517Z,17.20
2022-10-08T06:27:05.358Z,17.20
2022-10-08T06:29:34.123Z,17.20
2022-10-08T06:32:02.981Z,17.20
2022-10-08T06:34:31.587Z,17.20
2022-10-08T06:37:00.359Z,17.20
2022-10-08T06:39:30.639Z,17.20
2022-10-08T06:41:59.440Z,17.20
2022-10-08T06:44:38.184Z,17.20
2022-10-08T06:47:07.016Z,17.20
2022-10-08T06:49:36.415Z,17.20
2022-10-08T06:52:05.089Z,17.30
2022-10-08T06:54:35.922Z,17.30
2022-10-08T06:57:04.849Z,17.30
2022-10-08T06:59:33.585Z,17.30
2022-10-08T07:02:02.332Z,17.40
2022-10-08T07:04:31.205Z,17.40
2022-10-08T07:07:00.096Z,17.40
2022-10-08T07:09:28.841Z,17.30
2022-10-08T07:11:59.026Z,17.30
2022-10-08T07:14:27.831Z,17.30
2022-10-08T07:16:56.697Z,17.40
2022-10-08T07:19:25.682Z,17.40
2022-10-08T07:21:59.014Z,17.40
2022-10-08T07:24:30.000Z,17.40
2022-10-08T07:27:00.196Z,17.40
2022-10-08T07:29:28.927Z,17.40
2022-10-08T07:31:57.793Z,17.40
2022-10-08T07:34:26.544Z,17.40
2022-10-08T07:36:55.197Z,17.40
2022-10-08T07:39:24.130Z,17.40
2022-10-08T07:41:52.977Z,17.40
2022-10-08T07:44:23.223Z,17.40
2022-10-08T07:46:53.684Z,17.40
2022-10-08T07:49:22.640Z,17.40
2022-10-08T07:51:51.359Z,17.40
2022-10-08T07:54:21.070Z,17.40
2022-10-08T07:56:49.946Z,17.40
2022-10-08T07:59:18.693Z,17.40
2022-10-08T08:01:49.037Z,17.40
2022-10-08T08:04:18.045Z,17.40
2022-10-08T08:06:48.966Z,17.40
2022-10-08T08:09:18.602Z,17.40
2022-10-08T08:11:48.844Z,17.40
2022-10-08T08:14:17.752Z,17.40
2022-10-08T08:16:46.563Z,17.40
2022-10-08T08:19:16.920Z,17.40
2022-10-08T08:21:45.751Z,17.40
2022-10-08T08:24:15.463Z,17.40
2022-10-08T08:26:45.145Z,17.40
2022-10-08T08:29:16.638Z,17.40
2022-10-08T08:31:46.950Z,17.40
2022-10-08T08:34:18.903Z,17.40
2022-10-08T08:36:50.084Z,17.40
2022-10-08T08:39:20.787Z,17.40
2022-10-08T08:42:19.799Z,17.40
2022-10-08T08:44:50.600Z,17.40
2022-10-08T08:47:42.067Z,17.40
2022-10-08T08:50:25.781Z,17.50
2022-10-08T08:52:55.102Z,17.50
2022-10-08T08:55:34.400Z,17.50
2022-10-08T08:58:11.141Z,17.50
2022-10-08T09:00:43.597Z,17.50
2022-10-08T09:03:21.548Z,17.50
2022-10-08T09:05:56.753Z,17.50
2022-10-08T09:08:31.370Z,17.50
2022-10-08T09:11:03.041Z,17.50
2022-10-08T09:13:37.779Z,17.50
2022-10-08T09:16:06.916Z,17.50
2022-10-08T09:18:35.554Z,17.50
2022-10-08T09:21:05.990Z,17.50
2022-10-08T09:23:35.463Z,17.50
2022-10-08T09:26:13.763Z,17.60
2022-10-08T09:28:45.961Z,17.60
2022-10-08T09:31:25.802Z,17.60
2022-10-08T09:33:58.632Z,17.70
2022-10-08T09:36:34.387Z,17.70
2022-10-08T09:39:05.143Z,17.70
2022-10-08T09:41:34.267Z,17.70
2022-10-08T09:44:17.170Z,17.80
2022-10-08T09:46:47.370Z,17.80
2022-10-08T09:49:27.909Z,17.80
2022-10-08T09:52:00.308Z,17.90
2022-10-08T09:54:33.058Z,17.80
2022-10-08T09:57:02.626Z,17.90
2022-10-08T09:59:36.528Z,17.90
2022-10-08T10:02:35.382Z,17.90
2022-10-08T10:05:06.613Z,17.90
2022-10-08T10:07:42.283Z,17.90
2022-10-08T10:10:17.538Z,17.90
2022-10-08T10:12:50.040Z,17.90
2022-10-08T10:15:23.966Z,17.90
2022-10-08T10:18:14.748Z,18.00
2022-10-08T10:20:47.642Z,18.00
2022-10-08T10:23:23.213Z,18.00
2022-10-08T10:25:57.706Z,18.10
2022-10-08T10:28:35.953Z,18.20
2022-10-08T10:31:09.515Z,18.20
2022-10-08T10:33:44.134Z,18.20
2022-10-08T10:36:17.992Z,18.30
2022-10-08T10:38:55.166Z,18.30
2022-10-08T10:41:31.628Z,18.30
2022-10-08T10:44:02.071Z,18.30
2022-10-08T10:46:37.875Z,18.30
2022-10-08T10:49:15.175Z,18.30
2022-10-08T10:52:01.968Z,18.30
2022-10-08T10:54:46.411Z,18.30
2022-10-08T10:57:24.208Z,18.30
2022-10-08T11:00:00.685Z,18.30
2022-10-08T11:02:36.312Z,18.30
2022-10-08T11:05:13.883Z,18.30
2022-10-08T11:08:12.311Z,18.30
2022-10-08T11:10:53.669Z,18.30
2022-10-08T11:13:38.013Z,18.40
2022-10-08T11:16:19.604Z,18.40
2022-10-08T11:18:54.378Z,18.40
2022-10-08T11:21:35.836Z,18.40
2022-10-08T11:24:30.623Z,18.40
2022-10-08T11:27:08.425Z,18.50
2022-10-08T11:29:45.540Z,18.60
2022-10-08T11:32:17.542Z,18.60
2022-10-08T11:34:51.069Z,18.60
2022-10-08T11:37:26.113Z,18.70
2022-10-08T11:40:04.453Z,18.70
2022-10-08T11:42:47.511Z,18.70
2022-10-08T11:45:40.223Z,18.70
2022-10-08T11:48:42.148Z,18.70
2022-10-08T11:51:36.297Z,18.70
2022-10-08T11:54:17.833Z,18.70
2022-10-08T11:56:49.426Z,18.70
2022-10-08T11:59:32.642Z,18.70
2022-10-08T12:02:04.009Z,18.70
2022-10-08T12:04:36.411Z,18.70
2022-10-08T12:07:17.238Z,18.70
2022-10-08T12:10:23.631Z,18.70
2022-10-08T12:13:06.278Z,18.70
2022-10-08T12:16:05.172Z,18.70
2022-10-08T12:18:45.156Z,18.70
2022-10-08T12:21:56.506Z,18.70
2022-10-08T12:24:52.874Z,18.70
2022-10-08T12:27:38.002Z,18.60
2022-10-08T12:30:09.463Z,18.60
2022-10-08T12:32:57.437Z,18.60
2022-10-08T12:35:32.542Z,18.60
2022-10-08T12:38:26.733Z,18.60
2022-10-08T12:41:06.501Z,18.50
2022-10-08T12:43:42.035Z,18.50
2022-10-08T12:46:21.313Z,18.40
2022-10-08T12:48:55.208Z,18.40
2022-10-08T12:51:31.379Z,18.40
2022-10-08T12:54:00.703Z,18.40
2022-10-08T12:56:31.516Z,18.30
2022-10-08T12:59:04.875Z,18.30
2022-10-08T13:01:34.092Z,18.30
2022-10-08T13:04:18.454Z,18.30
2022-10-08T13:06:47.494Z,18.20
2022-10-08T13:09:27.604Z,18.20
2022-10-08T13:12:02.860Z,18.20
2022-10-08T13:14:35.082Z,18.20
2022-10-08T13:17:05.101Z,18.20
2022-10-08T13:19:37.134Z,18.20
2022-10-08T13:22:09.085Z,18.10
2022-10-08T13:24:42.873Z,18.10
2022-10-08T13:27:26.628Z,18.10
2022-10-08T13:29:56.149Z,18.10
2022-10-08T13:32:25.961Z,18.10
2022-10-08T13:34:58.495Z,18.10
2022-10-08T13:37:33.582Z,18.10
2022-10-08T13:40:04.258Z,18.00
2022-10-08T13:42:35.985Z,18.00
2022-10-08T13:45:06.550Z,18.00
2022-10-08T13:47:35.323Z,18.00
2022-10-08T13:50:06.222Z,18.00
2022-10-08T13:52:36.521Z,18.00
2022-10-08T13:55:27.586Z,18.00
2022-10-08T13:57:56.979Z,18.00
2022-10-08T14:00:46.177Z,18.00
2022-10-08T14:03:15.342Z,18.00
2022-10-08T14:05:48.954Z,18.00
2022-10-08T14:08:20.565Z,18.10
2022-10-08T14:10:49.615Z,18.00
2022-10-08T14:13:18.571Z,18.00
2022-10-08T14:15:47.532Z,18.00
2022-10-08T14:18:16.610Z,18.00
2022-10-08T14:20:47.040Z,18.00
2022-10-08T14:23:15.777Z,18.00
2022-10-08T14:25:44.507Z,18.10
2022-10-08T14:28:13.271Z,18.00
2022-10-08T14:30:42.058Z,18.00
2022-10-08T14:33:11.815Z,18.00
2022-10-08T14:35:41.038Z,18.00
2022-10-08T14:38:11.207Z,18.00
2022-10-08T14:40:39.971Z,17.90
2022-10-08T14:43:08.994Z,17.90
2022-10-08T14:45:37.923Z,17.90
2022-10-08T14:48:06.809Z,17.90
2022-10-08T14:50:35.617Z,17.90
2022-10-08T14:53:04.338Z,17.90
2022-10-08T14:55:49.174Z,17.80
2022-10-08T14:58:23.286Z,17.80
2022-10-08T15:00:54.800Z,17.80
2022-10-08T15:03:24.356Z,17.80
2022-10-08T15:05:54.432Z,17.80
2022-10-08T15:08:23.444Z,17.80
2022-10-08T15:10:53.638Z,17.80
2022-10-08T15:13:22.719Z,17.80
2022-10-08T15:15:51.853Z,17.80
2022-10-08T15:18:21.437Z,17.70
2022-10-08T15:20:55.993Z,17.80
2022-10-08T15:23:25.525Z,17.70
2022-10-08T15:26:00.327Z,17.70
2022-10-08T15:28:29.925Z,17.70
2022-10-08T15:31:06.632Z,17.70
2022-10-08T15:33:39.361Z,17.70
2022-10-08T15:36:19.152Z,17.70
2022-10-08T15:38:48.435Z,17.70
2022-10-08T15:41:18.731Z,17.70
2022-10-08T15:43:47.769Z,17.70
2022-10-08T15:46:18.704Z,17.70
2022-10-08T15:48:52.948Z,17.70
2022-10-08T15:51:21.707Z,17.70
2022-10-08T15:53:51.638Z,17.70
2022-10-08T15:56:21.964Z,17.70
2022-10-08T15:58:51.553Z,17.70
2022-10-08T16:01:22.288Z,17.70
2022-10-08T16:03:53.116Z,17.70
2022-10-08T16:06:23.870Z,17.70
2022-10-08T16:08:53.248Z,17.70
2022-10-08T16:11:25.395Z,17.60
2022-10-08T16:13:55.695Z,17.60
2022-10-08T16:16:24.649Z,17.60
2022-10-08T16:18:57.975Z,17.60
2022-10-08T16:21:27.192Z,17.60
2022-10-08T16:23:55.922Z,17.60
2022-10-08T16:26:26.676Z,17.60
2022-10-08T16:28:58.044Z,17.60
2022-10-08T16:31:28.290Z,17.60
2022-10-08T16:33:58.257Z,17.60
2022-10-08T16:36:27.664Z,17.60
2022-10-08T16:38:57.173Z,17.60
2022-10-08T16:41:29.328Z,17.50
2022-10-08T16:44:00.050Z,17.50
2022-10-08T16:46:30.443Z,17.50
2022-10-08T16:49:00.695Z,17.50
2022-10-08T16:51:32.366Z,17.50
2022-10-08T16:54:02.911Z,17.40
2022-10-08T16:56:35.813Z,17.40
2022-10-08T16:59:07.452Z,17.40
2022-10-08T17:01:38.494Z,17.40
2022-10-08T17:04:08.111Z,17.40
2022-10-08T17:06:37.162Z,17.40
2022-10-08T17:09:07.927Z,17.40
2022-10-08T17:11:38.882Z,17.50
2022-10-08T17:14:09.152Z,17.50
2022-10-08T17:16:38.056Z,17.50
2022-10-08T17:19:07.366Z,17.50
2022-10-08T17:21:36.464Z,17.50
2022-10-08T17:24:05.548Z,17.50
2022-10-08T17:26:34.334Z,17.50
2022-10-08T17:29:08.556Z,17.50
2022-10-08T17:31:38.487Z,17.50
2022-10-08T17:34:07.880Z,17.50
2022-10-08T17:36:38.495Z,17.50
2022-10-08T17:39:10.085Z,17.40
2022-10-08T17:41:40.348Z,17.40
2022-10-08T17:44:12.168Z,17.40
2022-10-08T17:46:45.948Z,17.40
2022-10-08T17:49:33.237Z,17.40
2022-10-08T17:52:02.036Z,17.40
2022-10-08T17:54:30.918Z,17.40
2022-10-08T17:57:00.278Z,17.40
2022-10-08T17:59:30.360Z,17.30
2022-10-08T18:01:59.299Z,17.30
2022-10-08T18:04:28.044Z,17.30
2022-10-08T18:07:02.482Z,17.30
2022-10-08T18:09:50.833Z,17.30
2022-10-08T18:12:19.550Z,17.30
2022-10-08T18:14:49.960Z,17.30
2022-10-08T18:17:18.952Z,17.10
2022-10-08T18:19:47.643Z,17.30
2022-10-08T18:22:16.564Z,17.30
2022-10-08T18:24:45.395Z,17.20
2022-10-08T18:27:14.078Z,17.20
2022-10-08T18:29:42.814Z,17.20
2022-10-08T18:32:13.004Z,17.20
2022-10-08T18:34:42.011Z,17.20
2022-10-08T18:37:10.791Z,17.20
2022-10-08T18:39:39.489Z,17.10
2022-10-08T18:42:26.894Z,17.30
2022-10-08T18:44:55.706Z,17.10
2022-10-08T18:47:25.936Z,17.10
2022-10-08T18:49:54.853Z,17.10
2022-10-08T18:52:26.985Z,17.10
2022-10-08T18:54:55.630Z,17.10
2022-10-08T18:57:24.461Z,17.10
2022-10-08T18:59:53.163Z,17.00
2022-10-08T19:02:22.228Z,17.10
2022-10-08T19:04:52.696Z,17.10
2022-10-08T19:07:21.588Z,17.10
2022-10-08T19:09:50.283Z,17.10
2022-10-08T19:12:19.608Z,17.10
2022-10-08T19:14:49.742Z,17.10
2022-10-08T19:17:18.515Z,17.10
2022-10-08T19:19:47.335Z,17.10
2022-10-08T19:22:17.990Z,17.00
2022-10-08T19:24:46.847Z,17.00
2022-10-08T19:27:15.553Z,17.00
2022-10-08T19:29:44.395Z,17.00
2022-10-08T19:32:13.155Z,17.00
2022-10-08T19:34:42.998Z,17.00
2022-10-08T19:37:11.781Z,17.00
2022-10-08T19:39:44.173Z,17.00
2022-10-08T19:42:13.085Z,17.00
2022-10-08T19:44:41.880Z,17.00
2022-10-08T19:47:10.703Z,17.00
2022-10-08T19:49:39.506Z,17.00
2022-10-08T19:52:08.310Z,17.00
2022-10-08T19:54:37.032Z,17.00
2022-10-08T19:57:07.381Z,17.00
2022-10-08T19:59:36.289Z,17.00
2022-10-08T20:02:05.053Z,16.90
2022-10-08T20:04:34.064Z,16.90
2022-10-08T20:07:02.909Z,16.90
2022-10-08T20:09:36.266Z,16.90
2022-10-08T20:12:06.864Z,16.90
2022-10-08T20:14:35.929Z,16.90
2022-10-08T20:17:04.743Z,16.90
2022-10-08T20:19:33.452Z,16.90
2022-10-08T20:22:02.339Z,16.90
2022-10-08T20:24:31.170Z,16.90
2022-10-08T20:26:59.941Z,16.90
2022-10-08T20:29:31.265Z,16.90
2022-10-08T20:32:00.924Z,16.90
2022-10-08T20:34:31.587Z,16.90
2022-10-08T20:37:01.784Z,16.90
2022-10-08T20:39:31.359Z,16.90
2022-10-08T20:42:00.879Z,16.90
2022-10-08T20:44:31.370Z,16.80
2022-10-08T20:47:00.775Z,16.90
2022-10-08T20:49:34.410Z,16.90
2022-10-08T20:52:04.506Z,16.90
2022-10-08T20:54:33.500Z,16.80
2022-10-08T20:57:02.235Z,16.80
2022-10-08T20:59:34.166Z,16.80
2022-10-08T21:02:04.098Z,16.90
2022-10-08T21:04:32.957Z,16.80
2022-10-08T21:07:01.712Z,16.80
2022-10-08T21:09:30.569Z,16.80
2022-10-08T21:11:59.452Z,16.80
2022-10-08T21:14:28.081Z,16.70
2022-10-08T21:16:58.348Z,16.80
2022-10-08T21:19:27.221Z,16.80
2022-10-08T21:21:56.086Z,16.80
2022-10-08T21:24:24.847Z,16.80
2022-10-08T21:26:53.624Z,16.80
2022-10-08T21:29:22.520Z,16.80
2022-10-08T21:31:51.294Z,16.80
2022-10-08T21:34:21.809Z,16.80
2022-10-08T21:36:51.235Z,16.80
2022-10-08T21:39:20.044Z,16.80
2022-10-08T21:41:48.910Z,16.50
2022-10-08T21:44:17.839Z,16.80
2022-10-08T21:46:46.655Z,16.80
2022-10-08T21:49:17.094Z,16.80
2022-10-08T21:51:47.831Z,16.80
2022-10-08T21:54:18.088Z,16.80
2022-10-08T21:56:47.224Z,16.80
2022-10-08T21:59:17.667Z,16.80
2022-10-08T22:01:48.180Z,16.80
2022-10-08T22:04:18.512Z,16.80
2022-10-08T22:06:50.299Z,16.80
2022-10-08T22:09:22.116Z,16.80
2022-10-08T22:11:52.447Z,16.80
2022-10-08T22:14:21.542Z,16.80
2022-10-08T22:16:50.578Z,16.80
2022-10-08T22:19:19.639Z,16.80
2022-10-08T22:21:49.927Z,16.80
2022-10-08T22:24:18.986Z,16.70
2022-10-08T22:26:49.093Z,16.80
2022-10-08T22:29:18.130Z,16.70
2022-10-08T22:31:47.382Z,16.70
2022-10-08T22:34:16.163Z,16.70
2022-10-08T22:36:45.653Z,16.70
2022-10-08T22:39:15.910Z,16.70
2022-10-08T22:41:44.860Z,16.70
2022-10-08T22:44:13.539Z,16.70
2022-10-08T22:46:42.382Z,16.70
2022-10-08T22:49:13.186Z,16.70
2022-10-08T22:51:44.116Z,16.60
2022-10-08T22:54:14.545Z,16.60
2022-10-08T22:56:43.510Z,16.60
2022-10-08T22:59:12.516Z,16.60
2022-10-08T23:01:41.235Z,16.60
2022-10-08T23:04:10.156Z,16.60
2022-10-08T23:06:39.060Z,16.60
2022-10-08T23:09:09.658Z,16.60
2022-10-08T23:11:40.206Z,16.50
2022-10-08T23:14:09.835Z,16.50
2022-10-08T23:16:38.669Z,16.50
2022-10-08T23:19:09.338Z,16.50
2022-10-08T23:21:40.230Z,16.50
2022-10-08T23:24:10.576Z,16.50
2022-10-08T23:26:41.305Z,16.70
2022-10-08T23:29:12.462Z,16.50
2022-10-08T23:31:41.373Z,16.50
2022-10-08T23:34:10.419Z,16.50
2022-10-08T23:36:40.823Z,16.50
2022-10-08T23:39:11.920Z,16.50
2022-10-08T23:41:42.482Z,16.50
2022-10-08T23:44:13.787Z,16.50
2022-10-08T23:46:42.856Z,16.50
2022-10-08T23:49:11.669Z,16.50
2022-10-08T23:51:43.828Z,16.50
2022-10-08T23:54:12.558Z,16.50
2022-10-08T23:56:42.846Z,16.50
2022-10-08T23:59:11.743Z,16.60
